This is the latest recevied weather packets stored in our database for station/object KD9CCP. If no packets are shown the sender has not sent any weather packets the latest 10 day(s).
| Time | Temp. | Humidity | Pressure | Rain* | Wind** | Luminosity | Snow |
|---|---|---|---|---|---|---|---|
| 1777939291 | 10.56° C | 51% | 1000 hPa | 0 mm | - | 10 W/m² | - |
| 1777938987 | 11.11° C | 51% | 999.7 hPa | 0 mm | - | 11 W/m² | - |
| 1777938684 | 11.11° C | 54% | 999.7 hPa | 0 mm | - | 14 W/m² | - |
| 1777938381 | 11.11° C | 51% | 999.5 hPa | 0 mm | - | 16 W/m² | - |
| 1777938078 | 11.67° C | 50% | 999.6 hPa | 0 mm | - | 16 W/m² | - |
| 1777937774 | 11.67° C | 50% | 999.6 hPa | 0 mm | - | 18 W/m² | - |
| 1777937470 | 12.22° C | 49% | 999.4 hPa | 0 mm | - | 12 W/m² | - |
| 1777937167 | 12.22° C | 49% | 999.3 hPa | 0 mm | - | 15 W/m² | - |
| 1777936865 | 12.22° C | 48% | 999.2 hPa | 0 mm | - | 19 W/m² | - |
| 1777936561 | 12.78° C | 48% | 999.3 hPa | 0 mm | - | 24 W/m² | - |
| 1777936257 | 12.78° C | 48% | 999.2 hPa | 0 mm | - | 25 W/m² | - |
| 1777935953 | 12.78° C | 47% | 999.3 hPa | 0 mm | - | 26 W/m² | - |
| 1777935653 | 12.78° C | 46% | 998.9 hPa | 0 mm | - | 20 W/m² | - |
| 1777935349 | 13.33° C | 46% | 999 hPa | 0 mm | - | 15 W/m² | - |
| 1777935046 | 13.89° C | 44% | 998.9 hPa | 0 mm | - | 19 W/m² | - |
| 1777934743 | 13.89° C | 43% | 998.6 hPa | 0 mm | - | 31 W/m² | - |
| 1777934440 | 13.89° C | 45% | 998.7 hPa | 0 mm | - | 37 W/m² | - |
| 1777934137 | 13.89° C | 45% | 998.5 hPa | 0 mm | - | 38 W/m² | - |
| 1777933833 | 13.89° C | 47% | 998.4 hPa | 0 mm | - | 32 W/m² | - |
| 1777933530 | 14.44° C | 44% | 998.1 hPa | 0 mm | - | 25 W/m² | - |
| 1777933227 | 14.44° C | 44% | 997.9 hPa | 0 mm | - | 36 W/m² | - |
| 1777932924 | 14.44° C | 45% | 998.2 hPa | 0 mm | - | 53 W/m² | - |
| 1777932621 | 15° C | 46% | 997.6 hPa | 0 mm | - | 35 W/m² | - |
| 1777932318 | 15° C | 45% | 997.7 hPa | 0 mm | - | 37 W/m² | - |
| 1777932015 | 15° C | 43% | 997.5 hPa | 0 mm | - | 47 W/m² | - |
* Rain latest hour (hover to see other rain measurements)
** Current wind speed in m/s (hover to see current wind gust speed)